首页
METAR-TAF:

METAR-TAF

机场 :

兹瓦尔特诺茨国际机场

葉里溫, 亚美尼亚

纬度: 40-08-50N, 经度: 044-23-45E, 海拔: 865米

当前天气观测

该预报发布于37分钟前的15:30 UTC
风速6节,风向东南
温度 10°C
湿度 46%
气压 1021 hPa
能见度10公里或以上
少量云层高于4600英尺

METAR: UDYZ 081530Z 14006KT 9999 FEW046 10/M01 Q1021 R09/010070 NOSIG

时间: 20:07 (16:07 UTC)

预报

该预报发布于4小时和54分钟前的11:13 UTC
预报有效从08日的 12点(UTC)到 09日的 12点(UTC)
风速6节,风向东北
能见度10公里或以上
1500米以下无云,无积雨云

TAF: UDYZ 081113Z 0812/0912 04006KT CAVOK

超过4000个机场的气象观测和天气预报(METAR&TAF报告)。

可查询的气象台以黄色和红色小点在地图上表示。

将鼠标移到小点上方,可查看气象台名称。

然后点击查看天气观测和预报。

如需切换地图:点击带黑十字的绿色按钮放大地图;点击带横线的绿色按钮缩小地图;或者点击绿色箭头查看邻近地区的地图。


METAR-TAF: